createdAt,value
2023-10-04T00:00:21.882Z,88.90
2023-10-04T00:02:53.910Z,89.80
2023-10-04T00:05:23.551Z,90.60
2023-10-04T00:07:52.853Z,91.10
2023-10-04T00:10:22.712Z,91.60
2023-10-04T00:12:51.073Z,92.60
2023-10-04T00:15:21.863Z,90.00
2023-10-04T00:17:53.504Z,89.90
2023-10-04T00:20:23.061Z,91.00
2023-10-04T00:22:51.363Z,92.70
2023-10-04T00:25:23.339Z,92.90
2023-10-04T00:27:53.424Z,92.80
2023-10-04T00:30:23.508Z,92.60
2023-10-04T00:32:51.823Z,92.90
2023-10-04T00:35:20.595Z,92.60
2023-10-04T00:37:52.513Z,92.90
2023-10-04T00:40:23.384Z,92.20
2023-10-04T00:42:52.951Z,92.30
2023-10-04T00:45:24.173Z,91.90
2023-10-04T00:47:57.814Z,91.80
2023-10-04T00:50:33.020Z,91.90
2023-10-04T00:53:04.379Z,92.30
2023-10-04T00:55:35.747Z,91.80
2023-10-04T00:58:06.736Z,91.70
2023-10-04T01:00:37.954Z,91.70
2023-10-04T01:03:08.440Z,91.50
2023-10-04T01:05:41.936Z,91.50
2023-10-04T01:08:10.902Z,91.60
2023-10-04T01:10:39.870Z,92.10
2023-10-04T01:13:10.956Z,92.30
2023-10-04T01:15:42.010Z,92.20
2023-10-04T01:18:13.162Z,90.70
2023-10-04T01:20:42.026Z,91.20
2023-10-04T01:23:13.178Z,91.30
2023-10-04T01:25:44.519Z,92.30
2023-10-04T01:28:14.975Z,87.10
2023-10-04T01:30:44.178Z,87.40
2023-10-04T01:33:17.008Z,88.00
2023-10-04T01:35:46.660Z,89.80
2023-10-04T01:38:16.348Z,90.20
2023-10-04T01:40:48.588Z,90.20
2023-10-04T01:43:18.001Z,89.50
2023-10-04T01:45:50.134Z,87.20
2023-10-04T01:48:19.151Z,83.70
2023-10-04T01:50:51.178Z,85.40
2023-10-04T01:53:21.844Z,86.10
2023-10-04T01:55:51.440Z,87.60
2023-10-04T01:58:24.463Z,87.90
2023-10-04T02:00:53.200Z,88.80
2023-10-04T02:03:21.842Z,88.40
2023-10-04T02:05:51.832Z,89.10
2023-10-04T02:08:24.635Z,88.20
2023-10-04T02:10:53.862Z,88.70
2023-10-04T02:13:21.996Z,87.70
2023-10-04T02:15:52.244Z,87.70
2023-10-04T02:18:21.615Z,86.00
2023-10-04T02:20:51.277Z,85.70
2023-10-04T02:23:22.274Z,84.80
2023-10-04T02:25:50.861Z,84.90
2023-10-04T02:28:24.205Z,84.20
2023-10-04T02:30:55.608Z,82.70
2023-10-04T02:33:29.179Z,80.20
2023-10-04T02:35:57.886Z,81.10
2023-10-04T02:38:28.289Z,84.40
2023-10-04T02:40:56.953Z,83.90
2023-10-04T02:43:31.643Z,84.80
2023-10-04T02:46:00.633Z,85.90
2023-10-04T02:48:31.609Z,86.90
2023-10-04T02:51:03.108Z,86.70
2023-10-04T02:53:42.876Z,86.60
2023-10-04T02:56:11.225Z,86.20
2023-10-04T02:58:39.367Z,84.90
2023-10-04T03:01:10.256Z,85.30
2023-10-04T03:03:38.703Z,84.70
2023-10-04T03:06:06.969Z,84.30
2023-10-04T03:08:36.718Z,85.30
2023-10-04T03:11:06.374Z,84.10
2023-10-04T03:13:34.451Z,84.60
2023-10-04T03:16:03.756Z,85.00
2023-10-04T03:18:32.780Z,84.10
2023-10-04T03:21:11.486Z,81.80
2023-10-04T03:23:42.842Z,82.10
2023-10-04T03:26:14.098Z,83.00
2023-10-04T03:28:42.523Z,82.20
2023-10-04T03:31:12.837Z,82.50
2023-10-04T03:33:41.116Z,82.40
2023-10-04T03:36:09.581Z,82.70
2023-10-04T03:38:37.800Z,83.10
2023-10-04T03:41:07.290Z,81.60
2023-10-04T03:43:36.790Z,82.60
2023-10-04T03:46:17.933Z,82.60
2023-10-04T03:48:47.043Z,83.60
2023-10-04T03:51:16.547Z,83.50
2023-10-04T03:53:44.820Z,82.90
2023-10-04T03:56:18.323Z,84.20
2023-10-04T03:58:46.999Z,83.90
2023-10-04T04:01:15.856Z,83.10
2023-10-04T04:03:45.336Z,83.80
2023-10-04T04:06:14.822Z,82.30
2023-10-04T04:08:43.476Z,81.20
2023-10-04T04:11:15.628Z,80.40
2023-10-04T04:13:46.647Z,79.80
2023-10-04T04:16:18.649Z,79.60
2023-10-04T04:18:48.854Z,79.10
2023-10-04T04:21:17.679Z,78.10
2023-10-04T04:23:46.099Z,77.20
2023-10-04T04:26:16.372Z,77.50
2023-10-04T04:28:45.581Z,77.80
2023-10-04T04:31:16.208Z,75.60
2023-10-04T04:33:46.338Z,78.20
2023-10-04T04:36:19.724Z,79.70
2023-10-04T04:38:48.770Z,80.20
2023-10-04T04:41:22.942Z,80.50
2023-10-04T04:43:51.777Z,79.40
2023-10-04T04:46:20.401Z,79.00
2023-10-04T04:48:49.544Z,79.00
2023-10-04T04:51:19.559Z,77.90
2023-10-04T04:53:48.808Z,77.30
2023-10-04T04:56:19.644Z,77.00
2023-10-04T04:58:49.368Z,77.70
2023-10-04T05:01:18.009Z,76.20
2023-10-04T05:03:48.188Z,76.10
2023-10-04T05:06:22.273Z,76.10
2023-10-04T05:08:50.846Z,78.10
2023-10-04T05:11:21.226Z,76.80
2023-10-04T05:13:57.118Z,79.30
2023-10-04T05:16:26.613Z,77.90
2023-10-04T05:18:55.566Z,76.10
2023-10-04T05:21:24.004Z,76.20
2023-10-04T05:23:57.070Z,76.80
2023-10-04T05:26:28.652Z,76.40
2023-10-04T05:29:03.212Z,76.60
2023-10-04T05:31:31.645Z,77.80
2023-10-04T05:33:59.985Z,81.20
2023-10-04T05:36:28.364Z,81.70
2023-10-04T05:38:56.951Z,80.60
2023-10-04T05:41:29.619Z,81.70
2023-10-04T05:43:57.853Z,82.70
2023-10-04T05:46:25.989Z,84.70
2023-10-04T05:48:54.299Z,84.80
2023-10-04T05:51:25.955Z,84.00
2023-10-04T05:53:54.431Z,83.50
2023-10-04T05:56:26.505Z,84.00
2023-10-04T05:58:56.145Z,84.00
2023-10-04T06:01:26.178Z,84.30
2023-10-04T06:03:54.556Z,86.30
2023-10-04T06:06:23.117Z,85.30
2023-10-04T06:08:58.535Z,85.10
2023-10-04T06:11:27.454Z,86.50
2023-10-04T06:13:56.939Z,85.30
2023-10-04T06:16:25.190Z,87.00
2023-10-04T06:18:53.385Z,85.90
2023-10-04T06:21:25.194Z,83.70
2023-10-04T06:23:53.507Z,84.60
2023-10-04T06:26:21.990Z,86.10
2023-10-04T06:28:51.514Z,87.20
2023-10-04T06:31:21.076Z,85.20
2023-10-04T06:33:54.910Z,85.50
2023-10-04T06:36:25.915Z,85.80
2023-10-04T06:38:54.491Z,86.40
2023-10-04T06:41:25.396Z,86.90
2023-10-04T06:43:53.599Z,85.90
2023-10-04T06:46:23.689Z,87.10
2023-10-04T06:48:52.665Z,87.70
2023-10-04T06:51:21.141Z,88.90
2023-10-04T06:53:49.762Z,88.70
2023-10-04T06:56:17.987Z,89.30
2023-10-04T06:58:46.073Z,90.50
2023-10-04T07:01:14.170Z,89.50
2023-10-04T07:03:45.073Z,89.90
2023-10-04T07:06:13.702Z,89.80
2023-10-04T07:08:42.963Z,88.50
2023-10-04T07:11:11.101Z,88.00
2023-10-04T07:13:40.445Z,87.60
2023-10-04T07:16:10.733Z,87.80
2023-10-04T07:18:42.115Z,89.00
2023-10-04T07:21:16.421Z,86.10
2023-10-04T07:23:44.927Z,85.20
2023-10-04T07:26:13.586Z,86.40
2023-10-04T07:28:44.818Z,87.40
2023-10-04T07:31:13.365Z,88.40
2023-10-04T07:33:42.078Z,87.20
2023-10-04T07:36:20.567Z,88.50
2023-10-04T07:38:53.689Z,86.00
2023-10-04T07:41:25.394Z,87.30
2023-10-04T07:43:54.919Z,88.40
2023-10-04T07:46:32.508Z,87.50
2023-10-04T07:49:03.225Z,86.70
2023-10-04T07:51:34.278Z,83.70
2023-10-04T07:54:08.441Z,82.00
2023-10-04T07:56:36.929Z,84.80
2023-10-04T07:59:09.809Z,81.90
2023-10-04T08:01:42.730Z,80.80
2023-10-04T08:04:18.060Z,81.40
2023-10-04T08:06:53.452Z,78.30
2023-10-04T08:09:23.596Z,75.90
2023-10-04T08:11:53.648Z,70.40
2023-10-04T08:14:23.855Z,67.10
2023-10-04T08:16:54.436Z,64.20
2023-10-04T08:19:24.269Z,67.10
2023-10-04T08:21:57.144Z,71.30
2023-10-04T08:24:25.364Z,70.90
2023-10-04T08:26:54.223Z,70.60
2023-10-04T08:29:24.691Z,70.20
2023-10-04T08:31:53.391Z,67.50
2023-10-04T08:34:22.084Z,67.40
2023-10-04T08:36:50.403Z,63.60
2023-10-04T08:39:20.006Z,62.80
2023-10-04T08:41:49.693Z,59.70
2023-10-04T08:44:27.751Z,59.10
2023-10-04T08:46:59.885Z,56.20
2023-10-04T08:49:35.697Z,56.40
2023-10-04T08:52:15.516Z,66.50
2023-10-04T08:54:48.510Z,62.40
2023-10-04T08:57:22.089Z,59.70
2023-10-04T08:59:57.711Z,59.90
2023-10-04T09:02:27.017Z,53.60
2023-10-04T09:04:55.880Z,59.80
2023-10-04T09:07:24.365Z,56.90
2023-10-04T09:09:59.342Z,54.80
2023-10-04T09:12:27.793Z,47.50
2023-10-04T09:14:56.740Z,46.80
2023-10-04T09:17:26.997Z,51.40
2023-10-04T09:19:57.985Z,42.60
2023-10-04T09:22:32.717Z,42.90
2023-10-04T09:25:03.417Z,44.80
2023-10-04T09:27:31.942Z,41.80
2023-10-04T09:30:00.860Z,39.70
2023-10-04T09:32:41.575Z,39.70
2023-10-04T09:35:11.511Z,42.30
2023-10-04T09:37:40.678Z,42.10
2023-10-04T09:40:13.430Z,37.80
2023-10-04T09:42:52.872Z,39.20
2023-10-04T09:45:26.087Z,36.50
2023-10-04T09:47:55.129Z,37.90
2023-10-04T09:50:24.322Z,37.30
2023-10-04T09:52:53.285Z,37.20
2023-10-04T09:55:24.047Z,32.70
2023-10-04T09:57:53.882Z,32.00
2023-10-04T10:00:24.181Z,31.90
2023-10-04T10:02:55.239Z,34.60
2023-10-04T10:05:29.010Z,34.20
2023-10-04T10:08:05.881Z,31.90
2023-10-04T10:10:38.825Z,30.00
2023-10-04T10:13:07.619Z,32.70
2023-10-04T10:15:38.972Z,32.60
2023-10-04T10:18:10.368Z,31.50
2023-10-04T10:20:40.484Z,31.80
2023-10-04T10:23:15.092Z,29.20
2023-10-04T10:26:21.226Z,32.90
2023-10-04T10:28:50.827Z,34.10
2023-10-04T10:31:23.240Z,30.60
2023-10-04T10:33:52.323Z,29.20
2023-10-04T10:36:25.704Z,30.10
2023-10-04T10:38:55.577Z,31.30
2023-10-04T10:44:51.906Z,29.90
2023-10-04T10:47:24.276Z,28.30
2023-10-04T10:49:56.711Z,28.90
2023-10-04T10:52:32.141Z,29.00
2023-10-04T10:55:01.735Z,26.30
2023-10-04T10:57:31.351Z,24.40
2023-10-04T11:00:12.858Z,24.50
2023-10-04T11:02:41.256Z,23.00
2023-10-04T11:05:11.653Z,23.00
2023-10-04T11:07:39.724Z,24.60
2023-10-04T11:10:09.676Z,24.60
2023-10-04T11:12:39.798Z,23.90
2023-10-04T11:15:11.632Z,30.70
2023-10-04T11:17:40.751Z,32.50
2023-10-04T11:20:12.081Z,27.30
2023-10-04T11:22:40.827Z,27.20
2023-10-04T11:25:12.262Z,28.00
2023-10-04T11:27:42.245Z,28.30
2023-10-04T11:30:14.996Z,27.30
2023-10-04T11:32:45.609Z,26.20
2023-10-04T11:35:14.459Z,26.00
2023-10-04T11:37:44.913Z,26.00
2023-10-04T11:40:15.463Z,25.60
2023-10-04T11:42:47.285Z,24.30
2023-10-04T11:45:21.045Z,23.30
2023-10-04T11:47:59.970Z,22.50
2023-10-04T11:50:28.805Z,23.20
2023-10-04T11:52:57.869Z,23.40
2023-10-04T11:55:26.681Z,23.30
2023-10-04T11:57:54.905Z,24.10
2023-10-04T12:00:27.594Z,22.90
2023-10-04T12:02:55.848Z,22.90
2023-10-04T12:05:24.031Z,22.50
2023-10-04T12:07:52.257Z,23.10
2023-10-04T12:10:20.677Z,21.40
2023-10-04T12:12:48.796Z,21.20
2023-10-04T12:15:17.154Z,20.90
2023-10-04T12:17:47.774Z,21.60
2023-10-04T12:20:21.627Z,21.50
2023-10-04T12:22:50.814Z,22.60
2023-10-04T12:25:19.312Z,19.80
2023-10-04T12:27:49.012Z,21.20
2023-10-04T12:30:19.555Z,20.90
2023-10-04T12:32:49.303Z,21.60
2023-10-04T12:35:17.472Z,21.40
2023-10-04T12:37:45.577Z,20.10
2023-10-04T12:40:19.305Z,20.90
2023-10-04T12:42:49.470Z,20.50
2023-10-04T12:45:18.433Z,20.90
2023-10-04T12:47:49.228Z,19.80
2023-10-04T12:50:17.464Z,20.50
2023-10-04T12:52:46.849Z,20.70
2023-10-04T12:55:15.555Z,20.30
2023-10-04T12:57:44.805Z,14.20
2023-10-04T13:00:16.793Z,13.70
2023-10-04T13:02:46.089Z,13.10
2023-10-04T13:05:16.169Z,11.50
2023-10-04T13:07:44.493Z,12.60
2023-10-04T13:10:13.045Z,11.50
2023-10-04T13:12:42.213Z,13.00
2023-10-04T13:15:12.721Z,11.10
2023-10-04T13:17:41.049Z,10.80
2023-10-04T13:20:18.173Z,11.90
2023-10-04T13:22:48.317Z,10.90
2023-10-04T13:25:16.494Z,10.10
2023-10-04T13:27:44.736Z,11.90
2023-10-04T13:30:14.757Z,11.30
2023-10-04T13:32:46.557Z,9.50
2023-10-04T13:35:17.282Z,10.80
2023-10-04T13:37:48.518Z,12.80
2023-10-04T13:42:53.545Z,24.20
2023-10-04T13:45:24.682Z,26.40
2023-10-04T13:47:52.925Z,24.00
2023-10-04T13:50:25.249Z,22.20
2023-10-04T13:52:54.805Z,21.80
2023-10-04T13:55:27.314Z,22.50
2023-10-04T13:57:56.975Z,20.30
2023-10-04T14:00:25.676Z,20.30
2023-10-04T14:02:56.547Z,19.70
2023-10-04T14:05:26.791Z,19.60
2023-10-04T14:07:56.814Z,19.60
2023-10-04T14:10:26.024Z,21.30
2023-10-04T14:12:57.030Z,20.10
2023-10-04T14:15:26.894Z,18.10
2023-10-04T14:17:55.621Z,19.90
2023-10-04T14:20:24.190Z,17.20
2023-10-04T14:22:53.114Z,19.50
2023-10-04T14:25:22.546Z,18.00
2023-10-04T14:27:50.813Z,17.00
2023-10-04T14:30:21.433Z,26.30
2023-10-04T14:32:50.157Z,24.70
2023-10-04T14:35:18.828Z,25.70
2023-10-04T14:37:47.419Z,22.90
2023-10-04T14:40:18.616Z,23.20
2023-10-04T14:42:49.882Z,21.60
2023-10-04T14:45:18.614Z,18.60
2023-10-04T14:47:46.985Z,18.40
2023-10-04T14:50:15.336Z,17.70
2023-10-04T14:52:43.950Z,17.40
2023-10-04T14:55:17.769Z,13.10
2023-10-04T14:57:48.232Z,12.20
2023-10-04T15:00:20.512Z,15.80
2023-10-04T15:02:50.023Z,14.70
2023-10-04T15:05:19.489Z,13.90
2023-10-04T15:07:48.676Z,14.10
2023-10-04T15:10:20.124Z,13.80
2023-10-04T15:12:50.783Z,8.90
2023-10-04T15:15:19.522Z,12.60
2023-10-04T15:17:48.181Z,18.60
2023-10-04T15:20:18.510Z,19.70
2023-10-04T15:22:49.739Z,18.40
2023-10-04T15:25:18.245Z,19.30
2023-10-04T15:27:49.071Z,21.20
2023-10-04T15:30:23.523Z,21.00
2023-10-04T15:32:53.580Z,18.30
2023-10-04T15:35:25.390Z,18.80
2023-10-04T15:37:54.645Z,17.20
2023-10-04T15:40:26.101Z,18.30
2023-10-04T15:42:55.116Z,18.20
2023-10-04T15:45:25.143Z,16.90
2023-10-04T15:47:53.531Z,15.80
2023-10-04T15:50:22.487Z,16.20
2023-10-04T15:52:50.715Z,17.70
2023-10-04T15:55:19.138Z,17.60
2023-10-04T15:57:47.989Z,18.70
2023-10-04T16:00:25.479Z,18.20
2023-10-04T16:02:57.224Z,18.10
2023-10-04T16:05:25.352Z,20.00
2023-10-04T16:07:53.440Z,22.70
2023-10-04T16:10:24.129Z,22.20
2023-10-04T16:12:54.772Z,22.20
2023-10-04T16:15:23.060Z,21.70
2023-10-04T16:17:51.280Z,21.20
2023-10-04T16:20:21.152Z,23.00
2023-10-04T16:22:55.281Z,30.10
2023-10-04T16:25:23.825Z,44.70
2023-10-04T16:27:52.627Z,47.70
2023-10-04T16:30:22.287Z,43.70
2023-10-04T16:32:51.432Z,44.30
2023-10-04T16:35:22.212Z,44.50
2023-10-04T16:37:51.230Z,46.60
2023-10-04T16:40:21.844Z,48.60
2023-10-04T16:42:51.591Z,48.90
2023-10-04T16:45:21.256Z,49.90
2023-10-04T16:47:50.858Z,48.80
2023-10-04T16:50:22.075Z,49.10
2023-10-04T16:52:52.395Z,51.80
2023-10-04T16:55:20.906Z,53.00
2023-10-04T16:57:50.055Z,53.60
2023-10-04T17:00:19.368Z,58.00
2023-10-04T17:02:48.986Z,60.40
2023-10-04T17:05:17.970Z,65.90
2023-10-04T17:07:47.567Z,68.90
2023-10-04T17:10:16.359Z,67.50
2023-10-04T17:12:44.518Z,67.80
2023-10-04T17:15:13.590Z,67.70
2023-10-04T17:17:42.078Z,66.70
2023-10-04T17:20:11.584Z,65.80
2023-10-04T17:22:39.821Z,64.20
2023-10-04T17:25:12.102Z,66.40
2023-10-04T17:27:40.591Z,68.20
2023-10-04T17:30:17.419Z,71.40
2023-10-04T17:32:49.514Z,71.90
2023-10-04T17:35:18.978Z,75.80
2023-10-04T17:37:47.456Z,76.00
2023-10-04T17:40:17.067Z,76.10
2023-10-04T17:42:45.765Z,76.20
2023-10-04T17:45:14.944Z,76.10
2023-10-04T17:47:43.190Z,76.00
2023-10-04T17:50:12.065Z,78.20
2023-10-04T17:52:40.255Z,80.00
2023-10-04T17:55:09.892Z,80.90
2023-10-04T17:57:41.080Z,80.40
2023-10-04T18:00:12.634Z,79.30
2023-10-04T18:02:41.363Z,79.80
2023-10-04T18:05:12.170Z,79.40
2023-10-04T18:07:40.648Z,75.90
2023-10-04T18:10:11.640Z,77.80
2023-10-04T18:12:42.663Z,75.20
2023-10-04T18:15:13.218Z,74.60
2023-10-04T18:17:41.597Z,76.10
2023-10-04T18:20:11.612Z,77.60
2023-10-04T18:22:41.607Z,79.50
2023-10-04T18:25:10.794Z,79.90
2023-10-04T18:27:41.072Z,79.50
2023-10-04T18:30:11.646Z,80.30
2023-10-04T18:32:41.051Z,80.70
2023-10-04T18:35:10.530Z,81.30
2023-10-04T18:37:38.666Z,78.50
2023-10-04T18:40:10.428Z,80.30
2023-10-04T18:42:39.190Z,80.10
2023-10-04T18:45:11.770Z,80.30
2023-10-04T18:47:41.290Z,85.80
2023-10-04T18:50:11.309Z,87.50
2023-10-04T18:52:40.172Z,89.20
2023-10-04T18:55:10.921Z,90.20
2023-10-04T18:57:42.079Z,90.20
2023-10-04T19:00:14.866Z,87.70
2023-10-04T19:02:44.905Z,88.30
2023-10-04T19:05:15.252Z,88.40
2023-10-04T19:07:44.122Z,86.40
2023-10-04T19:10:15.934Z,75.20
2023-10-04T19:12:45.824Z,72.70
2023-10-04T19:15:16.607Z,71.80
2023-10-04T19:17:46.164Z,71.10
2023-10-04T19:20:15.170Z,69.60
2023-10-04T19:22:43.909Z,70.70
2023-10-04T19:25:16.685Z,69.10
2023-10-04T19:27:47.170Z,70.30
2023-10-04T19:30:17.180Z,71.70
2023-10-04T19:32:45.583Z,73.40
2023-10-04T19:35:16.977Z,72.40
2023-10-04T19:37:45.574Z,70.30
2023-10-04T19:40:15.963Z,71.00
2023-10-04T19:42:44.725Z,69.10
2023-10-04T19:45:17.309Z,71.40
2023-10-04T19:47:47.611Z,71.80
2023-10-04T19:50:16.673Z,72.30
2023-10-04T19:52:44.845Z,74.40
2023-10-04T19:55:14.795Z,74.70
2023-10-04T19:57:43.417Z,76.00
2023-10-04T20:00:19.604Z,76.60
2023-10-04T20:02:52.413Z,76.80
2023-10-04T20:05:21.279Z,79.80
2023-10-04T20:07:49.600Z,80.40
2023-10-04T20:10:18.473Z,80.30
2023-10-04T20:12:46.693Z,79.20
2023-10-04T20:15:15.836Z,79.20
2023-10-04T20:17:46.051Z,79.40
2023-10-04T20:20:18.252Z,80.00
2023-10-04T20:22:46.828Z,80.40
2023-10-04T20:25:16.455Z,78.40
2023-10-04T20:27:44.936Z,77.10
2023-10-04T20:30:14.936Z,78.20
2023-10-04T20:32:43.415Z,80.00
2023-10-04T20:35:12.496Z,79.40
2023-10-04T20:37:42.869Z,82.30
2023-10-04T20:40:12.165Z,79.80
2023-10-04T20:42:42.258Z,77.60
2023-10-04T20:45:13.042Z,77.70
2023-10-04T20:47:42.806Z,77.80
2023-10-04T20:50:12.784Z,80.00
2023-10-04T20:52:45.402Z,81.40
2023-10-04T20:55:14.307Z,80.50
2023-10-04T20:57:46.260Z,81.60
2023-10-04T21:00:16.208Z,78.90
2023-10-04T21:02:45.427Z,76.90
2023-10-04T21:05:15.400Z,79.70
2023-10-04T21:07:46.254Z,81.30
2023-10-04T21:10:16.943Z,81.30
2023-10-04T21:12:45.618Z,80.40
2023-10-04T21:15:14.155Z,81.00
2023-10-04T21:17:43.363Z,79.60
2023-10-04T21:20:19.125Z,80.10
2023-10-04T21:22:49.940Z,77.70
2023-10-04T21:25:18.817Z,78.10
2023-10-04T21:27:47.070Z,75.50
2023-10-04T21:30:15.487Z,78.00
2023-10-04T21:32:46.199Z,78.80
2023-10-04T21:35:17.756Z,79.30
2023-10-04T21:37:49.566Z,78.70
2023-10-04T21:40:21.275Z,77.20
2023-10-04T21:42:50.368Z,78.40
2023-10-04T21:45:26.566Z,79.20
2023-10-04T21:48:02.570Z,77.60
2023-10-04T21:50:33.535Z,78.90
2023-10-04T21:53:02.595Z,79.60
2023-10-04T21:55:32.160Z,80.90
2023-10-04T21:58:00.781Z,80.60
2023-10-04T22:00:35.529Z,78.20
2023-10-04T22:03:05.380Z,77.60
2023-10-04T22:05:38.419Z,77.60
2023-10-04T22:08:09.396Z,77.80
2023-10-04T22:10:42.068Z,78.20
2023-10-04T22:13:12.581Z,76.10
2023-10-04T22:15:40.917Z,71.00
2023-10-04T22:18:11.918Z,72.80
2023-10-04T22:20:42.096Z,75.40
2023-10-04T22:23:10.666Z,75.60
2023-10-04T22:25:40.864Z,77.30
2023-10-04T22:28:09.871Z,77.70
2023-10-04T22:30:38.917Z,78.20
2023-10-04T22:33:10.102Z,78.00
2023-10-04T22:35:38.432Z,78.00
2023-10-04T22:38:06.744Z,77.00
2023-10-04T22:40:36.026Z,76.60
2023-10-04T22:43:08.874Z,75.70
2023-10-04T22:45:37.528Z,74.30
2023-10-04T22:48:07.162Z,74.80
2023-10-04T22:50:36.251Z,73.80
2023-10-04T22:53:04.980Z,72.90
2023-10-04T22:55:35.142Z,72.80
2023-10-04T22:58:05.474Z,71.20
2023-10-04T23:00:35.837Z,67.80
2023-10-04T23:03:04.154Z,69.90
2023-10-04T23:05:32.408Z,71.90
2023-10-04T23:08:00.564Z,73.20
2023-10-04T23:10:30.466Z,73.90
2023-10-04T23:13:00.138Z,74.80
2023-10-04T23:15:30.739Z,74.10
2023-10-04T23:18:10.740Z,73.90
2023-10-04T23:20:40.975Z,73.60
2023-10-04T23:23:14.460Z,73.90
2023-10-04T23:25:45.650Z,73.70
2023-10-04T23:28:16.519Z,73.60
2023-10-04T23:30:45.981Z,73.90
2023-10-04T23:33:20.386Z,71.50
2023-10-04T23:35:51.804Z,71.40
2023-10-04T23:38:23.257Z,71.80
2023-10-04T23:40:54.969Z,73.80
2023-10-04T23:43:23.373Z,75.50
2023-10-04T23:45:52.318Z,74.80
2023-10-04T23:48:26.118Z,75.10
2023-10-04T23:50:56.870Z,76.20
2023-10-04T23:53:56.855Z,76.80
2023-10-04T23:56:27.208Z,76.10
2023-10-04T23:58:58.853Z,73.80
